Time;durP1;ratioP1;P1;durP2;ratioP2;P2;SDS_P1;SDS_P2;PMS_P1;PMS_P2;Temp;Humidity;BMP_temperature;BMP_pressure;BME280_temperature;BME280_humidity;BME280_pressure;Samples;Min_cycle;Max_cycle;Signal;HPM_P1;HPM_P2
2023/08/13 00:01:23;;;;;;;2.63;1.10;;;15.50;99.90;;;;;;4955507;28;20453;-76
2023/08/13 00:03:49;;;;;;;1.77;0.90;;;15.50;99.90;;;;;;4971427;28;20050;-76
2023/08/13 00:06:14;;;;;;;1.98;0.90;;;15.50;99.90;;;;;;4955243;28;20096;-76
2023/08/13 00:08:40;;;;;;;2.25;0.95;;;15.50;99.90;;;;;;4968863;28;20050;-76
2023/08/13 00:11:11;;;;;;;2.78;1.10;;;15.50;99.90;;;;;;4955386;28;20189;-76
2023/08/13 00:13:38;;;;;;;2.47;1.17;;;15.40;99.90;;;;;;4955199;28;20097;-76
2023/08/13 00:16:04;;;;;;;2.30;0.93;;;15.40;99.90;;;;;;4970546;28;20093;-77
2023/08/13 00:18:31;;;;;;;2.42;0.90;;;15.40;99.90;;;;;;4955126;28;20402;-77
2023/08/13 00:20:58;;;;;;;1.70;0.82;;;15.40;99.90;;;;;;4970916;28;20047;-77
2023/08/13 00:23:24;;;;;;;1.60;0.90;;;15.30;99.90;;;;;;4955412;28;20568;-77
2023/08/13 00:25:49;;;;;;;2.15;0.93;;;15.40;99.90;;;;;;4971059;28;20045;-77
2023/08/13 00:28:15;;;;;;;2.45;1.02;;;15.30;99.90;;;;;;4970835;28;20051;-77
2023/08/13 00:30:41;;;;;;;2.38;1.00;;;15.40;99.90;;;;;;4971041;28;20043;-77
2023/08/13 00:33:06;;;;;;;1.70;1.00;;;15.30;99.90;;;;;;4954970;28;20050;-77
2023/08/13 00:35:32;;;;;;;1.77;0.85;;;15.30;99.90;;;;;;4971037;28;20369;-77
2023/08/13 00:37:58;;;;;;;1.70;1.00;;;15.30;99.90;;;;;;4970649;28;20104;-76
2023/08/13 00:40:24;;;;;;;1.98;0.85;;;15.30;99.90;;;;;;4970988;28;20072;-76
2023/08/13 00:42:49;;;;;;;;;;;15.30;99.90;;;;;;4971295;28;20050;-77
2023/08/13 00:45:15;;;;;;;2.28;0.90;;;15.30;99.90;;;;;;4985978;28;19984;-77
2023/08/13 00:47:41;;;;;;;;;;;15.20;99.90;;;;;;4970895;28;20082;-77
2023/08/13 00:50:07;;;;;;;3.50;0.90;;;15.20;99.90;;;;;;5003084;28;19996;-77
2023/08/13 00:52:33;;;;;;;2.95;0.80;;;15.20;99.90;;;;;;4954959;28;20402;-77
2023/08/13 00:54:59;;;;;;;1.98;0.80;;;15.20;99.90;;;;;;4970613;28;20039;-77
2023/08/13 00:57:25;;;;;;;2.47;0.93;;;15.20;99.90;;;;;;4970306;28;20082;-76
2023/08/13 00:59:51;;;;;;;2.20;1.02;;;15.20;99.90;;;;;;4970638;28;20046;-75
2023/08/13 01:02:17;;;;;;;2.67;1.13;;;15.20;99.90;;;;;;4963992;28;20035;-76
2023/08/13 01:04:43;;;;;;;1.98;0.98;;;15.20;99.90;;;;;;4962256;28;20462;-75
2023/08/13 01:07:24;;;;;;;3.75;1.90;;;15.20;99.90;;;;;;4944802;28;20046;-75
2023/08/13 01:10:37;;;;;;;2.63;1.20;;;15.20;99.90;;;;;;4977904;28;20123;-76
2023/08/13 01:13:25;;;;;;;2.03;0.90;;;15.20;99.90;;;;;;4924752;29;20080;-75
2023/08/13 01:15:53;;;;;;;2.08;0.90;;;15.30;99.90;;;;;;4967918;28;20546;-75
2023/08/13 01:18:21;;;;;;;2.50;1.30;;;15.20;99.90;;;;;;4958647;28;20059;-76
2023/08/13 01:20:47;;;;;;;3.45;1.00;;;15.30;99.90;;;;;;4966472;28;20054;-75
2023/08/13 01:23:12;;;;;;;1.75;1.00;;;15.30;99.90;;;;;;4956952;28;20102;-75
2023/08/13 01:25:45;;;;;;;1.77;0.88;;;15.30;99.90;;;;;;4961135;28;20065;-76
2023/08/13 01:28:15;;;;;;;2.40;1.10;;;15.30;99.90;;;;;;4954931;28;20039;-75
2023/08/13 01:30:47;;;;;;;2.80;1.10;;;15.30;99.90;;;;;;4961458;28;20042;-75
2023/08/13 01:33:18;;;;;;;2.67;1.00;;;15.30;99.90;;;;;;4951350;28;20074;-75
2023/08/13 01:35:45;;;;;;;3.00;1.13;;;15.30;99.90;;;;;;4968805;28;20089;-75
2023/08/13 01:38:11;;;;;;;1.80;1.00;;;15.40;99.90;;;;;;4958957;28;20047;-76
2023/08/13 01:40:37;;;;;;;2.42;1.13;;;15.40;99.90;;;;;;4956061;28;20043;-75
2023/08/13 01:43:02;;;;;;;3.03;1.10;;;15.40;99.90;;;;;;4962115;28;20109;-75
2023/08/13 01:45:28;;;;;;;2.15;1.00;;;15.40;99.90;;;;;;4970831;28;20042;-75
2023/08/13 01:47:54;;;;;;;2.10;0.90;;;15.40;99.90;;;;;;4985693;28;20049;-76
2023/08/13 01:50:22;;;;;;;3.33;1.10;;;15.40;99.90;;;;;;4968118;28;20046;-75
2023/08/13 01:52:48;;;;;;;3.67;1.15;;;15.40;99.90;;;;;;4964325;28;20154;-75
2023/08/13 01:55:13;;;;;;;;;;;15.40;99.90;;;;;;4969980;28;20050;-75
2023/08/13 01:57:39;;;;;;;3.75;0.98;;;15.40;99.90;;;;;;4967264;28;19918;-75
2023/08/13 02:00:07;;;;;;;3.15;1.10;;;15.40;99.90;;;;;;4985986;28;20089;-76
2023/08/13 02:02:34;;;;;;;3.47;1.17;;;15.40;99.90;;;;;;4970465;28;20350;-76
2023/08/13 02:05:00;;;;;;;3.28;1.13;;;15.40;99.90;;;;;;4944071;28;20054;-76
2023/08/13 02:07:26;;;;;;;1.75;0.90;;;15.40;99.90;;;;;;4960948;28;20114;-76
2023/08/13 02:09:51;;;;;;;1.98;0.95;;;15.40;99.90;;;;;;4966111;28;20073;-76
2023/08/13 02:12:17;;;;;;;4.63;1.20;;;15.30;99.90;;;;;;4940489;28;20042;-76
2023/08/13 02:14:43;;;;;;;2.35;0.90;;;15.30;99.90;;;;;;4989836;28;20050;-76
2023/08/13 02:17:12;;;;;;;3.65;1.08;;;15.30;99.90;;;;;;4962628;28;20449;-76
2023/08/13 02:19:39;;;;;;;2.17;0.90;;;15.30;99.90;;;;;;4994497;28;20086;-75
2023/08/13 02:22:05;;;;;;;1.45;0.82;;;15.30;99.90;;;;;;4973304;28;20668;-75
2023/08/13 02:24:31;;;;;;;1.92;0.93;;;15.20;99.90;;;;;;4973212;28;20116;-76
2023/08/13 02:26:57;;;;;;;3.22;1.00;;;15.30;99.90;;;;;;4957340;28;20552;-75
2023/08/13 02:29:23;;;;;;;2.78;0.90;;;15.20;99.90;;;;;;4938489;29;20054;-77
2023/08/13 02:31:48;;;;;;;2.45;0.90;;;15.20;99.90;;;;;;4959272;28;20027;-75
2023/08/13 02:34:14;;;;;;;2.28;1.00;;;15.30;99.90;;;;;;4980434;28;20043;-76
2023/08/13 02:36:40;;;;;;;3.17;1.38;;;15.20;99.90;;;;;;4970850;28;20123;-74
2023/08/13 02:39:05;;;;;;;3.15;1.10;;;15.20;99.90;;;;;;5000611;28;20058;-74
2023/08/13 02:41:31;;;;;;;2.38;0.98;;;15.20;99.90;;;;;;4973673;28;20047;-75
2023/08/13 02:43:57;;;;;;;2.40;0.98;;;15.20;99.90;;;;;;4963622;28;20047;-75
2023/08/13 02:46:24;;;;;;;3.50;1.20;;;15.20;99.90;;;;;;4995002;28;20042;-75
2023/08/13 02:48:54;;;;;;;2.58;0.95;;;15.20;99.90;;;;;;4957743;28;20043;-75
2023/08/13 02:51:20;;;;;;;2.42;0.80;;;15.10;99.90;;;;;;4973135;28;20050;-75
2023/08/13 02:53:46;;;;;;;2.33;0.90;;;15.10;99.90;;;;;;4978241;28;20039;-75
2023/08/13 02:56:11;;;;;;;;;;;15.10;99.90;;;;;;4975373;28;20117;-75
2023/08/13 02:58:37;;;;;;;2.60;1.05;;;15.10;99.90;;;;;;4966697;28;20393;-75
2023/08/13 03:01:03;;;;;;;2.05;0.95;;;15.10;99.90;;;;;;4972897;28;20050;-75
2023/08/13 03:03:29;;;;;;;2.28;0.80;;;15.10;99.90;;;;;;4956078;28;20308;-74
2023/08/13 03:05:55;;;;;;;1.50;0.80;;;15.10;99.90;;;;;;4973016;28;20054;-75
2023/08/13 03:08:20;;;;;;;1.98;0.90;;;15.10;99.90;;;;;;4958268;28;20470;-75
2023/08/13 03:10:46;;;;;;;2.35;0.90;;;15.10;99.90;;;;;;4960672;28;20043;-75
2023/08/13 03:13:12;;;;;;;1.95;1.00;;;15.10;99.90;;;;;;4941650;28;20035;-75
2023/08/13 03:15:38;;;;;;;1.33;0.70;;;15.00;99.90;;;;;;4982710;28;20043;-75
2023/08/13 03:18:04;;;;;;;1.05;0.70;;;15.00;99.90;;;;;;4966571;28;20062;-75
2023/08/13 03:20:29;;;;;;;1.80;0.80;;;15.00;99.90;;;;;;4969898;28;20062;-75
2023/08/13 03:22:55;;;;;;;1.65;0.70;;;15.00;99.90;;;;;;4972500;28;20046;-75
2023/08/13 03:25:21;;;;;;;1.92;0.70;;;15.00;99.90;;;;;;4969620;28;20509;-75
2023/08/13 03:27:48;;;;;;;2.15;0.80;;;15.00;99.90;;;;;;4967214;28;20043;-75
2023/08/13 03:30:14;;;;;;;1.83;0.80;;;15.10;99.90;;;;;;4958737;28;20399;-75
2023/08/13 03:32:39;;;;;;;2.55;0.90;;;15.00;99.90;;;;;;4962079;28;20035;-74
2023/08/13 03:35:05;;;;;;;3.65;1.10;;;15.00;99.90;;;;;;4953427;28;20078;-74
2023/08/13 03:37:31;;;;;;;2.35;0.93;;;15.00;99.90;;;;;;4980109;28;20038;-74
2023/08/13 03:39:56;;;;;;;2.72;1.27;;;15.00;99.90;;;;;;4977254;28;20391;-74
2023/08/13 03:42:22;;;;;;;1.88;1.00;;;14.90;99.90;;;;;;4955898;28;20054;-74
2023/08/13 03:44:48;;;;;;;2.50;1.00;;;15.00;99.90;;;;;;4970926;28;20500;-74
2023/08/13 03:47:14;;;;;;;;;;;14.90;99.90;;;;;;4971351;28;20062;-74
2023/08/13 03:49:40;;;;;;;3.08;1.10;;;14.90;99.90;;;;;;4967984;28;19926;-74
2023/08/13 03:52:06;;;;;;;2.92;1.50;;;14.90;99.90;;;;;;4971721;28;20046;-75
2023/08/13 03:54:32;;;;;;;;;;;14.90;99.90;;;;;;4957599;28;20070;-75
2023/08/13 03:56:57;;;;;;;3.47;1.30;;;14.90;99.90;;;;;;4970753;28;20537;-75
2023/08/13 03:59:23;;;;;;;4.22;1.33;;;14.90;99.90;;;;;;4964720;28;20050;-74
2023/08/13 04:01:49;;;;;;;1.98;0.90;;;14.90;99.90;;;;;;4950958;28;20050;-75
2023/08/13 04:04:15;;;;;;;3.22;1.10;;;15.00;99.90;;;;;;4968975;28;20133;-75
2023/08/13 04:06:42;;;;;;;3.50;1.08;;;14.90;99.90;;;;;;4964483;28;20046;-75
2023/08/13 04:09:08;;;;;;;3.47;1.00;;;14.90;99.90;;;;;;4969188;28;20061;-75
2023/08/13 04:11:34;;;;;;;2.22;1.13;;;14.90;99.90;;;;;;4955301;28;20434;-75
2023/08/13 04:13:59;;;;;;;1.63;1.00;;;14.90;99.90;;;;;;4987738;28;20043;-74
2023/08/13 04:16:25;;;;;;;1.65;0.88;;;14.90;99.90;;;;;;4970477;28;20555;-75
2023/08/13 04:18:51;;;;;;;2.88;1.08;;;15.00;99.90;;;;;;4970988;28;20397;-75
2023/08/13 04:21:17;;;;;;;1.63;0.90;;;15.10;99.90;;;;;;4944850;28;20034;-75
2023/08/13 04:23:42;;;;;;;2.42;0.93;;;15.10;99.90;;;;;;4960598;28;20053;-75
2023/08/13 04:26:08;;;;;;;1.55;0.73;;;15.20;99.90;;;;;;4950723;28;20035;-75
2023/08/13 04:28:34;;;;;;;2.78;1.00;;;15.20;99.90;;;;;;4952664;28;20054;-75
2023/08/13 04:31:00;;;;;;;3.35;1.10;;;15.20;99.90;;;;;;4967911;28;20043;-75
2023/08/13 04:33:27;;;;;;;2.50;1.00;;;15.30;99.90;;;;;;4947876;28;20061;-75
2023/08/13 04:35:53;;;;;;;2.20;1.00;;;15.40;99.90;;;;;;4950594;28;20057;-75
2023/08/13 04:38:22;;;;;;;3.53;1.20;;;15.40;99.90;;;;;;4968597;28;20075;-75
2023/08/13 04:40:49;;;;;;;3.10;1.42;;;15.40;99.90;;;;;;4984093;28;20050;-75
2023/08/13 04:43:15;;;;;;;1.80;1.10;;;15.60;99.90;;;;;;4969743;28;20362;-75
2023/08/13 04:45:48;;;;;;;3.00;1.10;;;15.60;99.90;;;;;;4954149;28;20099;-75
2023/08/13 04:48:18;;;;;;;3.53;1.20;;;15.60;99.90;;;;;;4966148;28;20055;-75
2023/08/13 04:50:44;;;;;;;2.78;1.10;;;15.70;99.90;;;;;;4968448;28;20233;-75
2023/08/13 04:53:10;;;;;;;2.80;1.25;;;15.70;99.90;;;;;;4969165;28;20167;-75
2023/08/13 04:55:35;;;;;;;4.50;1.48;;;15.70;99.90;;;;;;4967922;28;20480;-75
2023/08/13 04:58:01;;;;;;;3.97;1.27;;;15.70;99.90;;;;;;4968219;28;20054;-75
2023/08/13 05:00:27;;;;;;;4.65;1.42;;;15.80;99.90;;;;;;4963812;28;20038;-75
2023/08/13 05:02:52;;;;;;;2.72;1.70;;;15.80;99.90;;;;;;4945037;28;20121;-75
2023/08/13 05:05:18;;;;;;;3.17;1.20;;;15.80;99.90;;;;;;4993951;28;20079;-75
2023/08/13 05:07:44;;;;;;;3.42;1.45;;;15.80;99.90;;;;;;4977250;28;20384;-75
2023/08/13 05:10:09;;;;;;;4.22;1.50;;;15.90;99.90;;;;;;4968816;28;20050;-75
2023/08/13 05:12:35;;;;;;;4.25;1.50;;;15.90;99.90;;;;;;4968728;28;20046;-75
2023/08/13 05:15:01;;;;;;;2.35;1.20;;;15.90;99.90;;;;;;4967978;28;20031;-75
2023/08/13 05:17:27;;;;;;;2.85;1.10;;;16.00;99.90;;;;;;4967461;28;20530;-74
2023/08/13 05:19:52;;;;;;;4.40;1.23;;;16.00;99.90;;;;;;4953958;28;20185;-75
2023/08/13 05:22:18;;;;;;;4.50;1.50;;;16.10;99.90;;;;;;4967625;28;20046;-74
2023/08/13 05:24:46;;;;;;;4.40;1.30;;;16.10;99.90;;;;;;4965927;28;20055;-75
2023/08/13 05:27:12;;;;;;;2.47;1.30;;;16.10;99.90;;;;;;4987599;28;20170;-75
2023/08/13 05:29:38;;;;;;;2.42;1.20;;;16.10;99.90;;;;;;4985560;28;20508;-76
2023/08/13 05:32:04;;;;;;;4.28;1.45;;;16.20;99.90;;;;;;4966561;28;20637;-76
2023/08/13 05:34:30;;;;;;;;;;;16.20;99.90;;;;;;4952624;28;20069;-76
2023/08/13 05:36:56;;;;;;;3.92;1.42;;;16.20;99.90;;;;;;4970987;28;20028;-76
2023/08/13 05:39:22;;;;;;;3.25;1.40;;;16.20;99.90;;;;;;4966608;28;20047;-76
2023/08/13 05:41:48;;;;;;;2.58;1.30;;;16.30;99.90;;;;;;4969323;28;20047;-76
2023/08/13 05:44:14;;;;;;;3.65;1.38;;;16.30;99.90;;;;;;4970070;28;20125;-76
2023/08/13 05:46:39;;;;;;;3.50;1.60;;;16.30;99.90;;;;;;4967677;28;20117;-76
2023/08/13 05:49:05;;;;;;;8.88;2.20;;;16.30;99.90;;;;;;4969612;28;20125;-76
2023/08/13 05:51:30;;;;;;;;;;;16.40;99.90;;;;;;4958065;28;20381;-76
2023/08/13 05:53:56;;;;;;;3.75;1.60;;;16.40;99.90;;;;;;4959170;28;19965;-76
2023/08/13 05:56:22;;;;;;;4.60;1.60;;;16.40;99.90;;;;;;4971237;28;20086;-76
2023/08/13 05:58:47;;;;;;;3.78;1.60;;;16.40;99.90;;;;;;4958578;28;20034;-76
2023/08/13 06:01:13;;;;;;;;;;;16.40;99.90;;;;;;4965318;28;20370;-76
2023/08/13 06:03:38;;;;;;;4.05;1.90;;;16.50;99.90;;;;;;4996217;28;19917;-75
2023/08/13 06:06:04;;;;;;;3.33;1.50;;;16.40;99.90;;;;;;4967791;28;20074;-75
2023/08/13 06:08:30;;;;;;;5.75;1.77;;;16.40;99.90;;;;;;4969003;28;20051;-76
2023/08/13 06:10:55;;;;;;;3.50;1.50;;;16.50;99.90;;;;;;4968722;28;20053;-76
2023/08/13 06:13:21;;;;;;;4.65;1.63;;;16.40;99.90;;;;;;4985650;28;20200;-76
2023/08/13 06:15:47;;;;;;;3.92;1.70;;;16.40;99.90;;;;;;4951010;28;20049;-76
2023/08/13 06:18:13;;;;;;;2.55;1.45;;;16.40;99.90;;;;;;4968212;28;20059;-76
2023/08/13 06:20:38;;;;;;;3.42;1.13;;;16.40;99.90;;;;;;4965458;28;20413;-76
2023/08/13 06:23:04;;;;;;;2.88;1.50;;;16.40;99.90;;;;;;4969468;28;20042;-76
2023/08/13 06:25:30;;;;;;;5.35;1.50;;;16.50;99.90;;;;;;4960799;28;20039;-76
2023/08/13 06:27:56;;;;;;;1.70;1.20;;;16.50;99.90;;;;;;4980458;28;20105;-76
2023/08/13 06:30:21;;;;;;;2.55;1.40;;;16.60;99.90;;;;;;4962975;28;20034;-76
2023/08/13 06:32:47;;;;;;;3.13;1.50;;;16.60;99.90;;;;;;4963425;28;20552;-76
2023/08/13 06:35:15;;;;;;;;;;;16.70;99.90;;;;;;4989165;28;20098;-76
2023/08/13 06:37:40;;;;;;;;;;;16.80;99.90;;;;;;4980689;28;20029;-76
2023/08/13 06:40:07;;;;;;;4.57;1.58;;;17.10;99.90;;;;;;4965981;28;19919;-74
2023/08/13 06:42:33;;;;;;;4.60;1.80;;;17.20;99.90;;;;;;4949057;28;20165;-77
2023/08/13 06:44:58;;;;;;;;;;;17.40;99.90;;;;;;4984867;28;20129;-77
2023/08/13 06:47:24;;;;;;;3.47;1.67;;;17.50;99.90;;;;;;4999442;28;19969;-78
2023/08/13 06:49:49;;;;;;;4.40;1.90;;;17.60;99.90;;;;;;4939722;28;20043;-78
2023/08/13 06:52:16;;;;;;;4.03;1.83;;;17.60;99.90;;;;;;4957430;28;20148;-77
2023/08/13 06:54:41;;;;;;;3.40;1.80;;;17.60;99.90;;;;;;4950454;28;20047;-79
2023/08/13 06:57:07;;;;;;;;;;;17.50;99.90;;;;;;4957384;28;20126;-78
2023/08/13 06:59:33;;;;;;;3.95;1.77;;;17.40;99.90;;;;;;4956738;28;20373;-78
2023/08/13 07:01:59;;;;;;;;;;;17.60;99.90;;;;;;4954582;28;20046;-79
2023/08/13 07:04:25;;;;;;;7.30;2.28;;;17.50;99.90;;;;;;5016143;28;19973;-79
2023/08/13 07:06:50;;;;;;;5.25;1.88;;;17.60;99.90;;;;;;4959806;28;20030;-79
2023/08/13 07:09:16;;;;;;;;;;;17.70;99.90;;;;;;4953831;29;20070;-78
2023/08/13 07:11:42;;;;;;;7.15;1.92;;;17.90;99.90;;;;;;4977862;28;19918;-79
2023/08/13 07:14:07;;;;;;;;;;;18.00;99.90;;;;;;4952521;29;20047;-79
2023/08/13 07:16:34;;;;;;;7.72;2.55;;;18.10;99.90;;;;;;4951907;28;20006;-79
2023/08/13 07:19:00;;;;;;;5.78;2.25;;;18.20;99.90;;;;;;4976779;28;20066;-80
2023/08/13 07:21:26;;;;;;;;;;;18.30;99.90;;;;;;4932073;29;20481;-77
2023/08/13 07:23:52;;;;;;;6.82;2.30;;;18.40;99.90;;;;;;4995639;28;19922;-76
2023/08/13 07:26:18;;;;;;;6.53;2.30;;;18.40;99.90;;;;;;4966314;28;20043;-76
2023/08/13 07:28:44;;;;;;;;;;;18.50;99.90;;;;;;4954904;28;20045;-76
2023/08/13 07:31:10;;;;;;;6.40;2.40;;;18.50;99.90;;;;;;5002151;28;19950;-76
2023/08/13 07:33:35;;;;;;;;;;;18.60;99.90;;;;;;4971446;28;20138;-77
2023/08/13 07:36:03;;;;;;;5.57;2.33;;;18.70;99.90;;;;;;4996536;28;19930;-77
2023/08/13 07:38:29;;;;;;;5.93;2.45;;;18.80;99.90;;;;;;5004450;28;20100;-77
2023/08/13 07:40:58;;;;;;;;;;;19.00;99.90;;;;;;4971540;28;20117;-77
2023/08/13 07:43:24;;;;;;;4.43;1.90;;;19.20;99.90;;;;;;4969821;28;19918;-78
2023/08/13 07:45:50;;;;;;;5.20;1.80;;;19.20;99.90;;;;;;4968259;28;20047;-77
2023/08/13 07:48:17;;;;;;;6.15;1.98;;;19.20;99.90;;;;;;4972110;28;20401;-77
2023/08/13 07:50:43;;;;;;;5.90;2.50;;;19.30;99.90;;;;;;4967706;28;20039;-76
2023/08/13 07:53:09;;;;;;;;;;;19.40;99.90;;;;;;4970222;28;20061;-75
2023/08/13 07:55:35;;;;;;;5.53;2.33;;;19.40;99.90;;;;;;4992159;28;19953;-76
2023/08/13 07:58:01;;;;;;;;;;;19.30;24.50;;;;;;4983106;28;20093;-75
2023/08/13 08:00:28;;;;;;;6.95;2.35;;;19.20;1.00;;;;;;4983115;28;20389;-76
2023/08/13 08:02:53;;;;;;;;;;;19.30;2.10;;;;;;4969390;28;20082;-78
2023/08/13 08:05:22;;;;;;;4.90;2.20;;;19.30;99.90;;;;;;4970155;28;19935;-76
2023/08/13 08:07:48;;;;;;;4.53;1.80;;;19.40;1.00;;;;;;4955672;28;20039;-75
2023/08/13 08:10:13;;;;;;;;;;;19.70;99.90;;;;;;4952560;28;20398;-75
2023/08/13 08:12:39;;;;;;;4.70;1.80;;;19.80;1.00;;;;;;4949116;28;19926;-76
2023/08/13 08:15:06;;;;;;;;;;;19.80;99.90;;;;;;4965931;28;20066;-75
2023/08/13 08:17:35;;;;;;;9.02;2.65;;;19.70;94.90;;;;;;4982708;28;19945;-76
2023/08/13 08:20:02;;;;;;;7.53;2.42;;;19.60;99.90;;;;;;4916774;28;20494;-76
2023/08/13 08:22:28;;;;;;;7.93;2.55;;;19.40;63.60;;;;;;4968055;28;20059;-76
2023/08/13 08:24:54;;;;;;;;;;;19.50;99.90;;;;;;4946986;28;20051;-75
2023/08/13 08:27:20;;;;;;;8.70;1.98;;;19.50;99.90;;;;;;4954644;28;19922;-75
2023/08/13 08:29:45;;;;;;;;;;;19.60;99.90;;;;;;4960228;28;20147;-75
2023/08/13 08:32:11;;;;;;;6.00;2.03;;;19.60;99.90;;;;;;4986363;28;19918;-75
2023/08/13 08:34:36;;;;;;;;;;;19.70;99.90;;;;;;4938921;28;20367;-75
2023/08/13 08:37:04;;;;;;;3.65;1.80;;;19.70;54.20;;;;;;4997739;28;19922;-76
2023/08/13 08:39:30;;;;;;;5.13;1.90;;;19.80;99.90;;;;;;4980365;28;20557;-76
2023/08/13 08:41:57;;;;;;;5.10;1.88;;;19.80;75.80;;;;;;4970015;28;20126;-74
2023/08/13 08:44:23;;;;;;;7.15;2.10;;;20.00;1.00;;;;;;4967268;28;20042;-75
2023/08/13 08:46:51;;;;;;;3.67;1.73;;;20.20;1.00;;;;;;4968166;28;20485;-75
2023/08/13 08:49:18;;;;;;;5.13;1.73;;;20.50;99.90;;;;;;4999327;28;20137;-75
2023/08/13 08:51:45;;;;;;;4.57;1.60;;;20.80;1.00;;;;;;4969146;28;20046;-75
2023/08/13 08:54:11;;;;;;;5.45;1.40;;;20.80;1.00;;;;;;4990928;28;20447;-75
2023/08/13 08:56:37;;;;;;;5.07;1.30;;;20.80;49.10;;;;;;4968244;28;20142;-75
2023/08/13 08:59:04;;;;;;;3.38;1.33;;;20.80;99.90;;;;;;4967640;28;20050;-75
2023/08/13 09:01:30;;;;;;;4.28;1.77;;;20.70;97.80;;;;;;4968617;28;20039;-75
2023/08/13 09:03:56;;;;;;;4.60;1.52;;;20.50;99.90;;;;;;4967197;28;20162;-75
2023/08/13 09:06:22;;;;;;;;;;;20.50;99.90;;;;;;4968485;28;20092;-75
2023/08/13 09:08:49;;;;;;;5.68;1.65;;;20.80;99.90;;;;;;4968658;28;19926;-75
2023/08/13 09:11:14;;;;;;;4.95;1.40;;;21.20;99.90;;;;;;5001878;28;20125;-75
2023/08/13 09:13:50;;;;;;;5.20;1.30;;;21.30;99.90;;;;;;4968204;28;20129;-75
2023/08/13 09:16:16;;;;;;;3.47;1.30;;;21.70;99.90;;;;;;4957238;28;20043;-75
2023/08/13 09:18:42;;;;;;;5.07;1.40;;;21.90;88.60;;;;;;4967108;28;20329;-75
2023/08/13 09:21:09;;;;;;;3.42;1.30;;;22.10;99.90;;;;;;4996086;28;20051;-75
2023/08/13 09:23:38;;;;;;;3.03;1.10;;;22.20;99.90;;;;;;4968318;28;20061;-75
2023/08/13 09:26:04;;;;;;;3.80;1.40;;;22.30;99.90;;;;;;4999385;28;20126;-75
2023/08/13 09:28:29;;;;;;;3.70;1.10;;;22.30;1.00;;;;;;4966935;28;20281;-77
2023/08/13 09:30:57;;;;;;;3.03;1.00;;;22.40;99.90;;;;;;4960770;28;20069;-75
2023/08/13 09:33:22;;;;;;;5.03;1.50;;;22.30;99.90;;;;;;4959907;28;20459;-75
2023/08/13 09:35:48;;;;;;;4.95;1.42;;;22.10;99.90;;;;;;4965998;28;20061;-76
2023/08/13 09:38:14;;;;;;;5.10;1.23;;;22.00;99.90;;;;;;4971992;28;20039;-76
2023/08/13 09:40:41;;;;;;;4.78;1.30;;;21.90;99.90;;;;;;4951610;28;20133;-76
2023/08/13 09:43:08;;;;;;;2.90;1.00;;;22.00;1.00;;;;;;4969258;28;20785;-76
2023/08/13 09:45:35;;;;;;;4.10;1.30;;;22.10;6.60;;;;;;4954486;28;20409;-76
2023/08/13 09:48:05;;;;;;;4.50;1.30;;;22.20;2.50;;;;;;4970185;28;20054;-76
2023/08/13 09:50:39;;;;;;;2.60;1.15;;;22.30;1.00;;;;;;4967518;28;20089;-76
2023/08/13 09:53:12;;;;;;;2.67;1.00;;;22.60;99.90;;;;;;4966969;28;20035;-76
2023/08/13 09:55:57;;;;;;;4.22;1.50;;;22.60;99.90;;;;;;4974073;28;20397;-76
2023/08/13 09:58:24;;;;;;;4.28;1.58;;;22.50;99.90;;;;;;4964701;28;20046;-76
2023/08/13 10:00:50;;;;;;;4.05;1.42;;;22.30;99.90;;;;;;4951257;28;20130;-76
2023/08/13 10:03:18;;;;;;;3.65;1.10;;;22.20;99.90;;;;;;4968602;28;20150;-76
2023/08/13 10:05:45;;;;;;;2.00;0.90;;;22.00;1.00;;;;;;4968446;28;20035;-76
2023/08/13 10:08:12;;;;;;;3.28;1.23;;;22.00;99.90;;;;;;4979967;28;20129;-75
2023/08/13 10:10:38;;;;;;;2.55;0.90;;;21.90;99.90;;;;;;4964715;28;20035;-76
2023/08/13 10:13:04;;;;;;;5.25;1.60;;;21.90;99.90;;;;;;4969067;28;20039;-76
2023/08/13 10:15:36;;;;;;;4.93;1.40;;;21.70;99.90;;;;;;4965704;28;20346;-75
2023/08/13 10:18:05;;;;;;;6.78;1.52;;;21.70;1.00;;;;;;4967242;28;20449;-75
2023/08/13 10:20:31;;;;;;;4.35;1.40;;;21.80;99.90;;;;;;4971462;28;20058;-75
2023/08/13 10:22:56;;;;;;;2.72;0.98;;;21.80;99.90;;;;;;4971786;28;20093;-75
2023/08/13 10:25:26;;;;;;;6.15;1.15;;;22.20;99.90;;;;;;4966135;28;20031;-75
2023/08/13 10:27:54;;;;;;;3.45;1.38;;;22.40;99.90;;;;;;4971328;28;20110;-75
2023/08/13 10:30:20;;;;;;;4.00;1.10;;;22.50;99.90;;;;;;4970461;28;20090;-75
2023/08/13 10:32:51;;;;;;;4.05;1.10;;;22.40;99.90;;;;;;4952335;28;20043;-76
2023/08/13 10:35:25;;;;;;;4.13;1.17;;;22.30;99.90;;;;;;4978825;28;20051;-76
2023/08/13 10:37:55;;;;;;;3.70;1.10;;;22.20;1.00;;;;;;4970378;28;20066;-76
2023/08/13 10:40:21;;;;;;;3.67;1.20;;;21.90;1.00;;;;;;4956691;28;20117;-76
2023/08/13 10:42:49;;;;;;;3.72;1.30;;;21.90;99.90;;;;;;4944164;28;20557;-77
2023/08/13 10:45:17;;;;;;;5.15;1.40;;;21.70;38.20;;;;;;4972851;28;20039;-75
2023/08/13 10:47:49;;;;;;;3.80;1.17;;;21.70;99.90;;;;;;4954574;28;20082;-75
2023/08/13 10:50:39;;;;;;;4.72;1.20;;;21.70;39.80;;;;;;5002419;28;20058;-75
2023/08/13 10:53:09;;;;;;;3.20;1.20;;;22.10;99.90;;;;;;4966843;28;20043;-75
2023/08/13 10:55:47;;;;;;;4.22;1.10;;;22.50;1.00;;;;;;4966990;28;20035;-75
2023/08/13 10:58:39;;;;;;;3.22;0.80;;;22.80;99.90;;;;;;4969487;28;20129;-75
2023/08/13 11:01:13;;;;;;;3.55;1.30;;;23.10;90.90;;;;;;4971321;28;20058;-76
2023/08/13 11:03:52;;;;;;;1.98;0.90;;;23.20;99.90;;;;;;4984079;28;20129;-76
2023/08/13 11:06:22;;;;;;;2.63;1.10;;;23.20;99.90;;;;;;4965574;28;20134;-76
2023/08/13 11:08:48;;;;;;;3.15;1.27;;;22.90;99.90;;;;;;4974973;28;20065;-76
2023/08/13 11:11:18;;;;;;;3.72;1.10;;;22.70;99.90;;;;;;4967039;28;20046;-76
2023/08/13 11:13:47;;;;;;;3.95;1.05;;;22.50;99.90;;;;;;4986169;28;20401;-76
2023/08/13 11:16:13;;;;;;;4.28;1.23;;;22.30;99.90;;;;;;4962501;28;20372;-76
2023/08/13 11:18:39;;;;;;;3.00;1.20;;;22.30;1.00;;;;;;4975652;28;20402;-76
2023/08/13 11:21:05;;;;;;;5.28;0.90;;;22.30;1.00;;;;;;4965125;28;20047;-76
2023/08/13 11:23:31;;;;;;;2.17;0.88;;;22.30;1.00;;;;;;4972906;28;20057;-76
2023/08/13 11:25:57;;;;;;;2.10;1.00;;;22.80;44.80;;;;;;4955904;28;20486;-76
2023/08/13 11:28:25;;;;;;;2.10;0.70;;;22.80;99.90;;;;;;4980043;28;20047;-76
2023/08/13 11:30:54;;;;;;;2.42;1.08;;;22.90;99.90;;;;;;4977917;28;20121;-77
2023/08/13 11:33:20;;;;;;;3.55;1.00;;;22.70;99.90;;;;;;4969888;28;21112;-76
2023/08/13 11:35:46;;;;;;;3.10;0.93;;;22.50;99.90;;;;;;4972334;28;20046;-76
2023/08/13 11:38:12;;;;;;;3.00;1.10;;;22.50;1.00;;;;;;4970497;28;20053;-76
2023/08/13 11:40:38;;;;;;;3.22;0.90;;;22.40;92.60;;;;;;4971590;28;20054;-76
2023/08/13 11:43:08;;;;;;;2.13;0.90;;;22.50;49.40;;;;;;4972409;28;20157;-76
2023/08/13 11:45:34;;;;;;;2.60;0.90;;;22.40;99.90;;;;;;4955612;28;20181;-76
2023/08/13 11:48:10;;;;;;;2.00;0.90;;;22.30;99.90;;;;;;4970987;28;20130;-76
2023/08/13 11:50:36;;;;;;;;;;;22.30;99.90;;;;;;4970746;28;20043;-76
2023/08/13 11:53:10;;;;;;;3.08;0.93;;;22.30;99.90;;;;;;4969152;28;19925;-75
2023/08/13 11:55:39;;;;;;;2.38;0.88;;;22.20;99.90;;;;;;4967324;28;20077;-76
2023/08/13 11:58:04;;;;;;;3.90;1.10;;;22.30;99.90;;;;;;4981845;28;20042;-76
2023/08/13 12:00:31;;;;;;;1.80;0.80;;;22.30;99.90;;;;;;4983217;28;20462;-76
2023/08/13 12:02:58;;;;;;;2.35;0.90;;;22.40;99.90;;;;;;4971240;28;20066;-76
2023/08/13 12:05:29;;;;;;;1.85;1.02;;;22.50;33.80;;;;;;4959708;28;20047;-75
2023/08/13 12:08:04;;;;;;;2.50;0.85;;;22.50;1.00;;;;;;4947743;28;20047;-76
2023/08/13 12:10:31;;;;;;;1.77;0.70;;;22.60;91.10;;;;;;4979416;28;20494;-76
2023/08/13 12:12:57;;;;;;;1.67;0.80;;;22.60;70.40;;;;;;4946808;28;20121;-76
2023/08/13 12:15:25;;;;;;;3.05;0.88;;;22.70;1.00;;;;;;4969198;28;20126;-76
2023/08/13 12:17:52;;;;;;;3.00;1.25;;;22.60;1.00;;;;;;4974592;28;20055;-76
2023/08/13 12:20:17;;;;;;;3.38;1.10;;;22.40;17.10;;;;;;4945540;28;20471;-76
2023/08/13 12:22:43;;;;;;;3.90;1.15;;;22.20;96.30;;;;;;4965295;28;20088;-76
2023/08/13 12:25:09;;;;;;;2.15;0.90;;;22.00;99.90;;;;;;4953316;28;20512;-76
2023/08/13 12:27:35;;;;;;;3.05;0.80;;;22.00;99.90;;;;;;5003371;28;20047;-75
2023/08/13 12:30:01;;;;;;;2.03;0.80;;;22.10;87.00;;;;;;4964342;28;20082;-76
2023/08/13 12:32:27;;;;;;;2.33;0.90;;;22.50;99.90;;;;;;4967206;28;20109;-76
2023/08/13 12:34:53;;;;;;;1.95;0.88;;;22.90;1.00;;;;;;4973377;28;20089;-76
2023/08/13 12:37:18;;;;;;;1.80;0.77;;;23.00;99.90;;;;;;4978107;28;20054;-76
2023/08/13 12:39:44;;;;;;;2.42;0.95;;;22.90;99.90;;;;;;4972826;28;20506;-76
2023/08/13 12:42:10;;;;;;;2.63;0.90;;;22.80;99.90;;;;;;4970379;28;20053;-76
2023/08/13 12:44:36;;;;;;;1.75;0.60;;;22.70;99.90;;;;;;4951660;28;20449;-76
2023/08/13 12:47:02;;;;;;;3.80;0.90;;;22.80;99.90;;;;;;4965800;28;20043;-76
2023/08/13 12:49:28;;;;;;;1.88;0.75;;;22.70;99.90;;;;;;4965894;28;20506;-76
2023/08/13 12:51:54;;;;;;;1.88;0.73;;;22.70;99.90;;;;;;4949630;28;20038;-76
2023/08/13 12:54:20;;;;;;;1.55;0.60;;;22.70;99.90;;;;;;4968075;28;20039;-76